Samuel De Champlain — WDC8307 — position and weather

sailwx.info

Track history (hours):
 
Tides and Currents Weather Stations Pressure Air Temp Water Temp Dewpoint Dewpoint Depression Visibility Wind Speed Wind Dir Waves Ship Positions

Samuel De Champlain

Owner: American Transport Leasing, Muskegon, MI. More information available from US FCC via Universal Licensing System and Coast Guard Vessel Documentation Center.

Last reported at 2018-Jan-12 14:59 UTC. Time now 2018-Feb-25 19:32 UTC.
Position N 45°54' W 085°22'.
Warning: this ship's position is 44 days out of date.

Length 45 m; draft 5.6 m.

Type: Cargo ship. MMSI: 367084930.

Date/timePositionNaut miles runAvg speedWind from/ knotsBaromVisibWave heightAir tempDewpointWater temp
2018-Jan-12 14:59N 45°54' W 085°22'0 0.4
2018-Jan-12 14:30N 45°54' W 085°23'2 3.7
2018-Jan-12 14:00N 45°53' W 085°25'5 9.2
2018-Jan-12 13:30N 45°53' W 085°31'510.7
2018-Jan-12 13:00N 45°53' W 085°39'611.4
2018-Jan-12 12:30N 45°52' W 085°47'510.1
2018-Jan-12 11:59N 45°52' W 085°55'  
2018-Jan-08 18:57N 45°47' W 085°52'410.0
2018-Jan-08 18:30N 45°49' W 085°47'510.0
2018-Jan-08 18:00N 45°51' W 085°40'510.3
2018-Jan-08 17:30N 45°53' W 085°34'510.0
2018-Jan-08 17:00N 45°53' W 085°27'510.1
2018-Jan-08 16:30N 45°52' W 085°19'4 8.9
2018-Jan-08 16:00N 45°52' W 085°13'5 9.5
2018-Jan-08 15:30N 45°51' W 085°06'3 5.0
2018-Jan-08 15:00N 45°50' W 085°03'4 8.6
2018-Jan-08 14:30N 45°50' W 084°57'5 9.3
2018-Jan-08 14:00N 45°50' W 084°50'5 9.6
2018-Jan-08 13:29N 45°49' W 084°43'510.5
2018-Jan-08 13:00N 45°51' W 084°36'5 9.5
2018-Jan-08 12:30N 45°51' W 084°29'2 4.8
2018-Jan-08 12:00N 45°51' W 084°26'1 2.0
2018-Jan-08 11:24N 45°50' W 084°26'1 3.5
2018-Jan-08 11:00N 45°50' W 084°28'1 1.8
2018-Jan-08 10:30N 45°51' W 084°29'1 2.4
2018-Jan-08 10:00N 45°52' W 084°28'1 2.6
2018-Jan-08 09:30N 45°52' W 084°26'2 2.0
2018-Jan-08 08:37N 45°50' W 084°26'0 3.7
2018-Jan-08 08:30N 45°50' W 084°26'2 3.6
2018-Jan-08 08:00N 45°50' W 084°29'2 3.2
2018-Jan-08 07:30N 45°51' W 084°31'1 1.7
2018-Jan-08 06:59N 45°52' W 084°30'1 2.7
2018-Jan-08 06:29N 45°51' W 084°29'1 2.2
2018-Jan-08 05:58N 45°51' W 084°27'1 3.0
2018-Jan-08 05:30N 45°50' W 084°29'2 3.6
2018-Jan-08 05:00N 45°50' W 084°31'2 3.3
2018-Jan-08 04:30N 45°51' W 084°33'1 2.1
2018-Jan-08 04:00N 45°52' W 084°33'1 2.3
2018-Jan-08 03:30N 45°52' W 084°32'2 2.0
2018-Jan-08 02:39N 45°51' W 084°30'0 2.5
2018-Jan-08 02:30N 45°50' W 084°30'2 3.1
2018-Jan-08 01:52N 45°50' W 084°33'1 3.2
2018-Jan-08 01:29N 45°51' W 084°34'1 2.1
2018-Jan-08 01:00N 45°52' W 084°33'1 2.0
2018-Jan-08 00:30N 45°52' W 084°32'1 2.1
2018-Jan-08 00:00N 45°51' W 084°31'2 3.1
2018-Jan-07 23:30N 45°51' W 084°33'3 5.9
2018-Jan-07 22:59N 45°50' W 084°37'5 9.6
2018-Jan-07 22:30N 45°49' W 084°44'3 6.5
2018-Jan-07 22:00N 45°49' W 084°48'1 2.2
2018-Jan-07 21:30N 45°49' W 084°50'0 1.0
2018-Jan-07 21:00N 45°50' W 084°49'0 0.3
2018-Jan-07 20:30N 45°50' W 084°50'0 0.2
2018-Jan-07 20:00N 45°50' W 084°50'0 0.3
2018-Jan-07 19:30N 45°50' W 084°50'0 0.0
2018-Jan-07 19:00N 45°50' W 084°50'0 0.0
2018-Jan-07 18:30N 45°50' W 084°50'0 0.0
2018-Jan-07 18:00N 45°50' W 084°50'0 0.0
2018-Jan-07 17:30N 45°50' W 084°50'0 0.0
2018-Jan-07 17:00N 45°50' W 084°50'0 0.0
2018-Jan-07 16:30N 45°50' W 084°50'0 0.0
2018-Jan-07 16:00N 45°50' W 084°50'1 1.6
2018-Jan-07 15:30N 45°49' W 084°49'3 5.8
2018-Jan-07 15:00N 45°49' W 084°45'3 6.5
2018-Jan-07 14:30N 45°50' W 084°40'4 7.6
2018-Jan-07 14:00N 45°51' W 084°35'3 6.6
2018-Jan-07 13:30N 45°51' W 084°30'2 3.4
2018-Jan-07 12:57N 45°51' W 084°27'0 1.0
2018-Jan-07 12:30N 45°51' W 084°28'0 0.6
2018-Jan-07 12:00N 45°51' W 084°28'0 0.0
2018-Jan-07 11:30N 45°51' W 084°28'0 0.0
2018-Jan-07 11:00N 45°51' W 084°28'0 0.0
2018-Jan-07 10:30N 45°51' W 084°28'0 0.0
2018-Jan-07 10:00N 45°51' W 084°28'0 0.0
2018-Jan-07 09:30N 45°51' W 084°28'0 0.0
2018-Jan-07 09:00N 45°51' W 084°28'0 0.0
2018-Jan-07 08:30N 45°51' W 084°28'0 0.0
2018-Jan-07 07:59N 45°51' W 084°28'0 0.0
2018-Jan-07 07:29N 45°51' W 084°28'0 0.0
2018-Jan-07 06:57N 45°51' W 084°28'0 0.0
2018-Jan-07 06:30N 45°51' W 084°28'0 0.0
2018-Jan-07 06:00N 45°51' W 084°28'0 0.0
2018-Jan-07 05:27N 45°51' W 084°28'0 0.1
2018-Jan-07 04:59N 45°51' W 084°28'0 0.1
2018-Jan-07 04:30N 45°51' W 084°28'0 0.0
2018-Jan-07 03:59N 45°51' W 084°28'0 0.0
2018-Jan-07 03:24N 45°51' W 084°28'0 0.0
2018-Jan-07 02:55N 45°51' W 084°28'0 0.0
2018-Jan-07 02:23N 45°51' W 084°28'0 0.0
2018-Jan-07 01:54N 45°51' W 084°28'0 0.0
2018-Jan-07 01:30N 45°51' W 084°28'0 0.0
2018-Jan-07 00:30N 45°51' W 084°28'0 0.0
2018-Jan-07 00:00N 45°51' W 084°28'0 0.0
2018-Jan-06 23:30N 45°51' W 084°28'0 0.0
2018-Jan-06 23:00N 45°51' W 084°28'0 0.1
2018-Jan-06 22:30N 45°51' W 084°28'1 2.2
2018-Jan-06 22:00N 45°50' W 084°27'0 0.7
2018-Jan-06 21:30N 45°50' W 084°26'0 0.0
2018-Jan-06 21:00N 45°50' W 084°26'0 0.0
2018-Jan-06 20:30N 45°50' W 084°26'0 0.1
2018-Jan-06 20:00N 45°50' W 084°26'0 0.0
2018-Jan-06 19:30N 45°50' W 084°26'0 0.0
2018-Jan-06 19:00N 45°50' W 084°26'0 0.1
2018-Jan-06 18:30N 45°50' W 084°26'1 1.1
2018-Jan-06 18:00N 45°50' W 084°25'1 2.9
2018-Jan-06 17:30N 45°50' W 084°23'3 6.1
2018-Jan-06 17:00N 45°48' W 084°20'3 6.0
2018-Jan-06 16:29N 45°46' W 084°16'17 5.8
2018-Jan-06 13:34N 45°36' W 083°56'1 7.7
2018-Jan-06 13:29N 45°36' W 083°56'4 7.5
2018-Jan-06 13:00N 45°34' W 083°51'4 7.4
2018-Jan-06 12:30N 45°32' W 083°47'4 7.4
2018-Jan-06 12:00N 45°30' W 083°42'4 7.2
2018-Jan-06 11:30N 45°28' W 083°38'4 7.1
2018-Jan-06 11:00N 45°26' W 083°34'3 5.7
2018-Jan-06 10:30N 45°24' W 083°31'3 5.2
2018-Jan-06 10:00N 45°23' W 083°27'  
Track history (hours):
 
Tides and Currents Weather Stations Pressure Air Temp Water Temp Dewpoint Dewpoint Depression Visibility Wind Speed Wind Dir Waves Ship Positions

Samuel De Champlain

Owner: American Transport Leasing, Muskegon, MI. More information available from US FCC via Universal Licensing System and Coast Guard Vessel Documentation Center.

Last reported at 2018-Jan-12 14:59 UTC. Time now 2018-Feb-25 19:32 UTC.
Position N 45°54' W 085°22'.
Warning: this ship's position is 44 days out of date.

Length 45 m; draft 5.6 m.

Type: Cargo ship. MMSI: 367084930.

Date/timePositionNaut miles runAvg speedWind from/ knotsBaromVisibWave heightAir tempDewpointWater temp
2018-Jan-12 14:59N 45°54' W 085°22'0 0.4
2018-Jan-12 14:30N 45°54' W 085°23'2 3.7
2018-Jan-12 14:00N 45°53' W 085°25'5 9.2
2018-Jan-12 13:30N 45°53' W 085°31'510.7
2018-Jan-12 13:00N 45°53' W 085°39'611.4
2018-Jan-12 12:30N 45°52' W 085°47'510.1
2018-Jan-12 11:59N 45°52' W 085°55'  
2018-Jan-08 18:57N 45°47' W 085°52'410.0
2018-Jan-08 18:30N 45°49' W 085°47'510.0
2018-Jan-08 18:00N 45°51' W 085°40'510.3
2018-Jan-08 17:30N 45°53' W 085°34'510.0
2018-Jan-08 17:00N 45°53' W 085°27'510.1
2018-Jan-08 16:30N 45°52' W 085°19'4 8.9
2018-Jan-08 16:00N 45°52' W 085°13'5 9.5
2018-Jan-08 15:30N 45°51' W 085°06'3 5.0
2018-Jan-08 15:00N 45°50' W 085°03'4 8.6
2018-Jan-08 14:30N 45°50' W 084°57'5 9.3
2018-Jan-08 14:00N 45°50' W 084°50'5 9.6
2018-Jan-08 13:29N 45°49' W 084°43'510.5
2018-Jan-08 13:00N 45°51' W 084°36'5 9.5
2018-Jan-08 12:30N 45°51' W 084°29'2 4.8
2018-Jan-08 12:00N 45°51' W 084°26'1 2.0
2018-Jan-08 11:24N 45°50' W 084°26'1 3.5
2018-Jan-08 11:00N 45°50' W 084°28'1 1.8
2018-Jan-08 10:30N 45°51' W 084°29'1 2.4
2018-Jan-08 10:00N 45°52' W 084°28'1 2.6
2018-Jan-08 09:30N 45°52' W 084°26'2 2.0
2018-Jan-08 08:37N 45°50' W 084°26'0 3.7
2018-Jan-08 08:30N 45°50' W 084°26'2 3.6
2018-Jan-08 08:00N 45°50' W 084°29'2 3.2
2018-Jan-08 07:30N 45°51' W 084°31'1 1.7
2018-Jan-08 06:59N 45°52' W 084°30'1 2.7
2018-Jan-08 06:29N 45°51' W 084°29'1 2.2
2018-Jan-08 05:58N 45°51' W 084°27'1 3.0
2018-Jan-08 05:30N 45°50' W 084°29'2 3.6
2018-Jan-08 05:00N 45°50' W 084°31'2 3.3
2018-Jan-08 04:30N 45°51' W 084°33'1 2.1
2018-Jan-08 04:00N 45°52' W 084°33'1 2.3
2018-Jan-08 03:30N 45°52' W 084°32'2 2.0
2018-Jan-08 02:39N 45°51' W 084°30'0 2.5
2018-Jan-08 02:30N 45°50' W 084°30'2 3.1
2018-Jan-08 01:52N 45°50' W 084°33'1 3.2
2018-Jan-08 01:29N 45°51' W 084°34'1 2.1
2018-Jan-08 01:00N 45°52' W 084°33'1 2.0
2018-Jan-08 00:30N 45°52' W 084°32'1 2.1
2018-Jan-08 00:00N 45°51' W 084°31'2 3.1
2018-Jan-07 23:30N 45°51' W 084°33'3 5.9
2018-Jan-07 22:59N 45°50' W 084°37'5 9.6
2018-Jan-07 22:30N 45°49' W 084°44'3 6.5
2018-Jan-07 22:00N 45°49' W 084°48'1 2.2
2018-Jan-07 21:30N 45°49' W 084°50'0 1.0
2018-Jan-07 21:00N 45°50' W 084°49'0 0.3
2018-Jan-07 20:30N 45°50' W 084°50'0 0.2
2018-Jan-07 20:00N 45°50' W 084°50'0 0.3
2018-Jan-07 19:30N 45°50' W 084°50'0 0.0
2018-Jan-07 19:00N 45°50' W 084°50'0 0.0
2018-Jan-07 18:30N 45°50' W 084°50'0 0.0
2018-Jan-07 18:00N 45°50' W 084°50'0 0.0
2018-Jan-07 17:30N 45°50' W 084°50'0 0.0
2018-Jan-07 17:00N 45°50' W 084°50'0 0.0
2018-Jan-07 16:30N 45°50' W 084°50'0 0.0
2018-Jan-07 16:00N 45°50' W 084°50'1 1.6
2018-Jan-07 15:30N 45°49' W 084°49'3 5.8
2018-Jan-07 15:00N 45°49' W 084°45'3 6.5
2018-Jan-07 14:30N 45°50' W 084°40'4 7.6
2018-Jan-07 14:00N 45°51' W 084°35'3 6.6
2018-Jan-07 13:30N 45°51' W 084°30'2 3.4
2018-Jan-07 12:57N 45°51' W 084°27'0 1.0
2018-Jan-07 12:30N 45°51' W 084°28'0 0.6
2018-Jan-07 12:00N 45°51' W 084°28'0 0.0
2018-Jan-07 11:30N 45°51' W 084°28'0 0.0
2018-Jan-07 11:00N 45°51' W 084°28'0 0.0
2018-Jan-07 10:30N 45°51' W 084°28'0 0.0
2018-Jan-07 10:00N 45°51' W 084°28'0 0.0
2018-Jan-07 09:30N 45°51' W 084°28'0 0.0
2018-Jan-07 09:00N 45°51' W 084°28'0 0.0
2018-Jan-07 08:30N 45°51' W 084°28'0 0.0
2018-Jan-07 07:59N 45°51' W 084°28'0 0.0
2018-Jan-07 07:29N 45°51' W 084°28'0 0.0
2018-Jan-07 06:57N 45°51' W 084°28'0 0.0
2018-Jan-07 06:30N 45°51' W 084°28'0 0.0
2018-Jan-07 06:00N 45°51' W 084°28'0 0.0
2018-Jan-07 05:27N 45°51' W 084°28'0 0.1
2018-Jan-07 04:59N 45°51' W 084°28'0 0.1
2018-Jan-07 04:30N 45°51' W 084°28'0 0.0
2018-Jan-07 03:59N 45°51' W 084°28'0 0.0
2018-Jan-07 03:24N 45°51' W 084°28'0 0.0
2018-Jan-07 02:55N 45°51' W 084°28'0 0.0
2018-Jan-07 02:23N 45°51' W 084°28'0 0.0
2018-Jan-07 01:54N 45°51' W 084°28'0 0.0
2018-Jan-07 01:30N 45°51' W 084°28'0 0.0
2018-Jan-07 00:30N 45°51' W 084°28'0 0.0
2018-Jan-07 00:00N 45°51' W 084°28'0 0.0
2018-Jan-06 23:30N 45°51' W 084°28'0 0.0
2018-Jan-06 23:00N 45°51' W 084°28'0 0.1
2018-Jan-06 22:30N 45°51' W 084°28'1 2.2
2018-Jan-06 22:00N 45°50' W 084°27'0 0.7
2018-Jan-06 21:30N 45°50' W 084°26'0 0.0
2018-Jan-06 21:00N 45°50' W 084°26'0 0.0
2018-Jan-06 20:30N 45°50' W 084°26'0 0.1
2018-Jan-06 20:00N 45°50' W 084°26'0 0.0
2018-Jan-06 19:30N 45°50' W 084°26'0 0.0
2018-Jan-06 19:00N 45°50' W 084°26'0 0.1
2018-Jan-06 18:30N 45°50' W 084°26'1 1.1
2018-Jan-06 18:00N 45°50' W 084°25'1 2.9
2018-Jan-06 17:30N 45°50' W 084°23'3 6.1
2018-Jan-06 17:00N 45°48' W 084°20'3 6.0
2018-Jan-06 16:29N 45°46' W 084°16'17 5.8
2018-Jan-06 13:34N 45°36' W 083°56'1 7.7
2018-Jan-06 13:29N 45°36' W 083°56'4 7.5
2018-Jan-06 13:00N 45°34' W 083°51'4 7.4
2018-Jan-06 12:30N 45°32' W 083°47'4 7.4
2018-Jan-06 12:00N 45°30' W 083°42'4 7.2
2018-Jan-06 11:30N 45°28' W 083°38'4 7.1
2018-Jan-06 11:00N 45°26' W 083°34'3 5.7
2018-Jan-06 10:30N 45°24' W 083°31'3 5.2
2018-Jan-06 10:00N 45°23' W 083°27'  

Dump ship's entire track history